sensor_id;sensor_type;location;lat;lon;timestamp;temperature;humidity
64817;DHT22;53289;45.602;11.904;2023-01-24T00:01:21;7.60;74.50
64817;DHT22;53289;45.602;11.904;2023-01-24T00:03:47;7.50;74.70
64817;DHT22;53289;45.602;11.904;2023-01-24T00:06:14;7.40;74.90
64817;DHT22;53289;45.602;11.904;2023-01-24T00:08:40;7.40;75.20
64817;DHT22;53289;45.602;11.904;2023-01-24T00:11:08;7.40;75.30
64817;DHT22;53289;45.602;11.904;2023-01-24T00:13:35;7.30;75.50
64817;DHT22;53289;45.602;11.904;2023-01-24T00:16:06;7.30;75.70
64817;DHT22;53289;45.602;11.904;2023-01-24T00:18:33;7.20;75.90
64817;DHT22;53289;45.602;11.904;2023-01-24T00:21:07;7.20;76.10
64817;DHT22;53289;45.602;11.904;2023-01-24T00:23:39;7.20;76.30
64817;DHT22;53289;45.602;11.904;2023-01-24T00:26:06;7.10;76.70
64817;DHT22;53289;45.602;11.904;2023-01-24T00:28:32;7.10;76.90
64817;DHT22;53289;45.602;11.904;2023-01-24T00:30:58;7.10;77.10
64817;DHT22;53289;45.602;11.904;2023-01-24T00:33:24;7.00;77.40
64817;DHT22;53289;45.602;11.904;2023-01-24T00:35:50;6.90;77.40
64817;DHT22;53289;45.602;11.904;2023-01-24T00:38:17;6.90;77.60
64817;DHT22;53289;45.602;11.904;2023-01-24T00:40:44;6.80;77.60
64817;DHT22;53289;45.602;11.904;2023-01-24T00:43:09;6.70;77.80
64817;DHT22;53289;45.602;11.904;2023-01-24T00:45:36;6.60;77.70
64817;DHT22;53289;45.602;11.904;2023-01-24T00:48:07;6.60;78.00
64817;DHT22;53289;45.602;11.904;2023-01-24T00:50:33;6.60;77.90
64817;DHT22;53289;45.602;11.904;2023-01-24T00:53:00;6.50;78.20
64817;DHT22;53289;45.602;11.904;2023-01-24T00:55:26;6.50;78.20
64817;DHT22;53289;45.602;11.904;2023-01-24T00:57:52;6.40;78.20
64817;DHT22;53289;45.602;11.904;2023-01-24T01:00:18;6.30;78.30
64817;DHT22;53289;45.602;11.904;2023-01-24T01:02:44;6.30;78.40
64817;DHT22;53289;45.602;11.904;2023-01-24T01:05:10;6.30;78.60
64817;DHT22;53289;45.602;11.904;2023-01-24T01:07:36;6.20;78.60
64817;DHT22;53289;45.602;11.904;2023-01-24T01:10:03;6.20;78.50
64817;DHT22;53289;45.602;11.904;2023-01-24T01:12:29;6.10;78.40
64817;DHT22;53289;45.602;11.904;2023-01-24T01:14:54;6.10;78.40
64817;DHT22;53289;45.602;11.904;2023-01-24T01:17:20;6.10;78.40
64817;DHT22;53289;45.602;11.904;2023-01-24T01:19:50;6.00;78.50
64817;DHT22;53289;45.602;11.904;2023-01-24T01:22:21;6.00;78.50
64817;DHT22;53289;45.602;11.904;2023-01-24T01:24:47;5.90;78.50
64817;DHT22;53289;45.602;11.904;2023-01-24T01:27:13;5.80;78.50
64817;DHT22;53289;45.602;11.904;2023-01-24T01:29:39;5.80;78.60
64817;DHT22;53289;45.602;11.904;2023-01-24T01:32:05;5.70;78.70
64817;DHT22;53289;45.602;11.904;2023-01-24T01:34:31;5.60;78.90
64817;DHT22;53289;45.602;11.904;2023-01-24T01:36:56;5.50;78.80
64817;DHT22;53289;45.602;11.904;2023-01-24T01:39:22;5.40;78.80
64817;DHT22;53289;45.602;11.904;2023-01-24T01:41:48;5.40;78.80
64817;DHT22;53289;45.602;11.904;2023-01-24T01:44:21;5.40;79.00
64817;DHT22;53289;45.602;11.904;2023-01-24T01:47:30;5.30;79.10
64817;DHT22;53289;45.602;11.904;2023-01-24T01:52:45;5.20;79.20
64817;DHT22;53289;45.602;11.904;2023-01-24T01:55:17;5.20;79.20
64817;DHT22;53289;45.602;11.904;2023-01-24T01:57:45;5.10;79.50
64817;DHT22;53289;45.602;11.904;2023-01-24T02:00:19;5.00;79.50
64817;DHT22;53289;45.602;11.904;2023-01-24T02:02:48;5.00;79.60
64817;DHT22;53289;45.602;11.904;2023-01-24T02:05:19;5.10;80.50
64817;DHT22;53289;45.602;11.904;2023-01-24T02:07:56;5.10;80.50
64817;DHT22;53289;45.602;11.904;2023-01-24T02:10:24;5.10;80.70
64817;DHT22;53289;45.602;11.904;2023-01-24T02:12:52;5.20;80.60
64817;DHT22;53289;45.602;11.904;2023-01-24T02:15:21;5.30;80.30
64817;DHT22;53289;45.602;11.904;2023-01-24T02:18:07;5.40;80.40
64817;DHT22;53289;45.602;11.904;2023-01-24T02:20:44;5.40;80.10
64817;DHT22;53289;45.602;11.904;2023-01-24T02:28:49;5.40;79.40
64817;DHT22;53289;45.602;11.904;2023-01-24T02:31:16;5.40;79.40
64817;DHT22;53289;45.602;11.904;2023-01-24T02:33:42;5.30;79.40
64817;DHT22;53289;45.602;11.904;2023-01-24T02:36:32;5.20;79.40
64817;DHT22;53289;45.602;11.904;2023-01-24T02:39:29;5.20;79.60
64817;DHT22;53289;45.602;11.904;2023-01-24T02:42:07;5.20;79.70
64817;DHT22;53289;45.602;11.904;2023-01-24T02:44:43;5.10;79.70
64817;DHT22;53289;45.602;11.904;2023-01-24T02:47:11;5.10;79.70
64817;DHT22;53289;45.602;11.904;2023-01-24T02:49:36;5.00;79.80
64817;DHT22;53289;45.602;11.904;2023-01-24T02:52:02;5.00;79.90
64817;DHT22;53289;45.602;11.904;2023-01-24T02:54:47;5.00;80.00
64817;DHT22;53289;45.602;11.904;2023-01-24T02:57:12;5.00;80.10
64817;DHT22;53289;45.602;11.904;2023-01-24T02:59:59;5.00;80.10
64817;DHT22;53289;45.602;11.904;2023-01-24T03:02:24;5.00;80.10
64817;DHT22;53289;45.602;11.904;2023-01-24T03:04:50;4.90;80.20
64817;DHT22;53289;45.602;11.904;2023-01-24T03:07:16;4.90;80.20
64817;DHT22;53289;45.602;11.904;2023-01-24T03:09:42;4.90;80.30
64817;DHT22;53289;45.602;11.904;2023-01-24T03:12:14;4.90;80.20
64817;DHT22;53289;45.602;11.904;2023-01-24T03:14:58;4.90;80.20
64817;DHT22;53289;45.602;11.904;2023-01-24T03:17:43;4.90;80.20
64817;DHT22;53289;45.602;11.904;2023-01-24T03:20:28;4.90;80.10
64817;DHT22;53289;45.602;11.904;2023-01-24T03:23:13;4.90;80.10
64817;DHT22;53289;45.602;11.904;2023-01-24T03:25:58;4.80;80.00
64817;DHT22;53289;45.602;11.904;2023-01-24T03:28:43;4.80;80.00
64817;DHT22;53289;45.602;11.904;2023-01-24T03:31:28;4.70;80.00
64817;DHT22;53289;45.602;11.904;2023-01-24T03:34:12;4.60;80.00
64817;DHT22;53289;45.602;11.904;2023-01-24T03:37:12;4.50;80.10
64817;DHT22;53289;45.602;11.904;2023-01-24T03:39:38;4.40;80.20
64817;DHT22;53289;45.602;11.904;2023-01-24T03:42:25;4.40;80.30
64817;DHT22;53289;45.602;11.904;2023-01-24T03:44:52;4.30;80.50
64817;DHT22;53289;45.602;11.904;2023-01-24T03:47:18;4.30;80.50
64817;DHT22;53289;45.602;11.904;2023-01-24T03:49:44;4.30;80.50
64817;DHT22;53289;45.602;11.904;2023-01-24T03:52:29;4.20;80.50
64817;DHT22;53289;45.602;11.904;2023-01-24T03:54:56;4.20;80.50
64817;DHT22;53289;45.602;11.904;2023-01-24T03:57:22;4.20;80.50
64817;DHT22;53289;45.602;11.904;2023-01-24T03:59:48;4.10;80.60
64817;DHT22;53289;45.602;11.904;2023-01-24T04:02:15;4.20;80.60
64817;DHT22;53289;45.602;11.904;2023-01-24T04:04:40;4.20;80.90
64817;DHT22;53289;45.602;11.904;2023-01-24T04:07:24;4.20;80.80
64817;DHT22;53289;45.602;11.904;2023-01-24T04:09:50;4.30;81.10
64817;DHT22;53289;45.602;11.904;2023-01-24T04:12:17;4.30;80.90
64817;DHT22;53289;45.602;11.904;2023-01-24T04:14:42;4.30;80.70
64817;DHT22;53289;45.602;11.904;2023-01-24T04:17:09;4.20;80.60
64817;DHT22;53289;45.602;11.904;2023-01-24T04:19:35;4.20;80.60
64817;DHT22;53289;45.602;11.904;2023-01-24T04:22:00;4.20;80.50
64817;DHT22;53289;45.602;11.904;2023-01-24T04:24:26;4.20;80.40
64817;DHT22;53289;45.602;11.904;2023-01-24T04:26:52;4.10;80.20
64817;DHT22;53289;45.602;11.904;2023-01-24T04:29:17;4.00;80.10
64817;DHT22;53289;45.602;11.904;2023-01-24T04:31:43;3.90;80.10
64817;DHT22;53289;45.602;11.904;2023-01-24T04:34:09;3.90;80.10
64817;DHT22;53289;45.602;11.904;2023-01-24T04:36:35;3.80;80.20
64817;DHT22;53289;45.602;11.904;2023-01-24T04:39:01;3.80;80.50
64817;DHT22;53289;45.602;11.904;2023-01-24T04:41:27;3.70;81.00
64817;DHT22;53289;45.602;11.904;2023-01-24T04:43:52;3.80;81.30
64817;DHT22;53289;45.602;11.904;2023-01-24T04:46:18;3.80;80.90
64817;DHT22;53289;45.602;11.904;2023-01-24T04:48:44;3.90;80.60
64817;DHT22;53289;45.602;11.904;2023-01-24T04:51:10;3.80;80.50
64817;DHT22;53289;45.602;11.904;2023-01-24T04:53:38;3.80;80.50
64817;DHT22;53289;45.602;11.904;2023-01-24T04:56:05;3.80;80.40
64817;DHT22;53289;45.602;11.904;2023-01-24T04:58:32;3.70;80.60
64817;DHT22;53289;45.602;11.904;2023-01-24T05:00:59;3.60;80.80
64817;DHT22;53289;45.602;11.904;2023-01-24T05:03:25;3.60;80.60
64817;DHT22;53289;45.602;11.904;2023-01-24T05:05:54;3.60;80.40
64817;DHT22;53289;45.602;11.904;2023-01-24T05:08:20;3.40;80.40
64817;DHT22;53289;45.602;11.904;2023-01-24T05:10:46;3.40;80.40
64817;DHT22;53289;45.602;11.904;2023-01-24T05:13:12;3.30;80.50
64817;DHT22;53289;45.602;11.904;2023-01-24T05:15:38;3.20;80.60
64817;DHT22;53289;45.602;11.904;2023-01-24T05:18:04;3.10;80.50
64817;DHT22;53289;45.602;11.904;2023-01-24T05:20:30;3.00;80.60
64817;DHT22;53289;45.602;11.904;2023-01-24T05:22:56;2.90;80.80
64817;DHT22;53289;45.602;11.904;2023-01-24T05:25:22;2.90;80.90
64817;DHT22;53289;45.602;11.904;2023-01-24T05:27:48;2.80;81.20
64817;DHT22;53289;45.602;11.904;2023-01-24T05:30:14;2.70;81.30
64817;DHT22;53289;45.602;11.904;2023-01-24T05:32:41;2.70;81.40
64817;DHT22;53289;45.602;11.904;2023-01-24T05:35:07;2.70;81.70
64817;DHT22;53289;45.602;11.904;2023-01-24T05:37:36;2.70;81.70
64817;DHT22;53289;45.602;11.904;2023-01-24T05:40:02;2.70;82.00
64817;DHT22;53289;45.602;11.904;2023-01-24T05:42:30;2.70;81.80
64817;DHT22;53289;45.602;11.904;2023-01-24T05:44:55;2.70;81.80
64817;DHT22;53289;45.602;11.904;2023-01-24T05:47:21;2.60;81.70
64817;DHT22;53289;45.602;11.904;2023-01-24T05:49:47;2.60;81.60
64817;DHT22;53289;45.602;11.904;2023-01-24T05:52:13;2.60;81.70
64817;DHT22;53289;45.602;11.904;2023-01-24T05:54:49;2.60;82.00
64817;DHT22;53289;45.602;11.904;2023-01-24T05:57:16;2.50;82.20
64817;DHT22;53289;45.602;11.904;2023-01-24T05:59:42;2.50;82.10
64817;DHT22;53289;45.602;11.904;2023-01-24T06:02:08;2.50;81.90
64817;DHT22;53289;45.602;11.904;2023-01-24T06:04:34;2.50;81.90
64817;DHT22;53289;45.602;11.904;2023-01-24T06:06:59;2.60;82.10
64817;DHT22;53289;45.602;11.904;2023-01-24T06:09:25;2.60;82.10
64817;DHT22;53289;45.602;11.904;2023-01-24T06:11:51;2.60;82.00
64817;DHT22;53289;45.602;11.904;2023-01-24T06:14:17;2.50;81.90
64817;DHT22;53289;45.602;11.904;2023-01-24T06:16:44;2.60;81.90
64817;DHT22;53289;45.602;11.904;2023-01-24T06:19:11;2.50;81.70
64817;DHT22;53289;45.602;11.904;2023-01-24T06:21:47;2.50;81.80
64817;DHT22;53289;45.602;11.904;2023-01-24T06:24:17;2.40;81.70
64817;DHT22;53289;45.602;11.904;2023-01-24T06:26:44;2.40;81.70
64817;DHT22;53289;45.602;11.904;2023-01-24T06:29:10;2.40;81.80
64817;DHT22;53289;45.602;11.904;2023-01-24T06:37:50;2.40;81.80
64817;DHT22;53289;45.602;11.904;2023-01-24T06:40:18;2.40;81.80
64817;DHT22;53289;45.602;11.904;2023-01-24T06:42:45;2.40;81.80
64817;DHT22;53289;45.602;11.904;2023-01-24T06:45:11;2.30;81.90
64817;DHT22;53289;45.602;11.904;2023-01-24T06:47:37;2.30;82.00
64817;DHT22;53289;45.602;11.904;2023-01-24T06:50:03;2.30;82.00
64817;DHT22;53289;45.602;11.904;2023-01-24T06:52:31;2.30;81.90
64817;DHT22;53289;45.602;11.904;2023-01-24T06:54:57;2.30;81.90
64817;DHT22;53289;45.602;11.904;2023-01-24T06:57:23;2.30;81.90
64817;DHT22;53289;45.602;11.904;2023-01-24T06:59:48;2.30;81.90
64817;DHT22;53289;45.602;11.904;2023-01-24T07:02:14;2.30;81.90
64817;DHT22;53289;45.602;11.904;2023-01-24T07:04:40;2.30;81.90
64817;DHT22;53289;45.602;11.904;2023-01-24T07:07:06;2.30;81.90
64817;DHT22;53289;45.602;11.904;2023-01-24T07:09:32;2.40;82.00
64817;DHT22;53289;45.602;11.904;2023-01-24T07:11:58;2.40;82.10
64817;DHT22;53289;45.602;11.904;2023-01-24T07:14:24;2.50;82.10
64817;DHT22;53289;45.602;11.904;2023-01-24T07:16:51;2.60;82.10
64817;DHT22;53289;45.602;11.904;2023-01-24T07:19:19;2.60;82.10
64817;DHT22;53289;45.602;11.904;2023-01-24T07:21:47;2.70;82.20
64817;DHT22;53289;45.602;11.904;2023-01-24T07:24:15;2.80;82.30
64817;DHT22;53289;45.602;11.904;2023-01-24T07:26:42;3.00;82.40
64817;DHT22;53289;45.602;11.904;2023-01-24T07:29:09;3.20;82.50
64817;DHT22;53289;45.602;11.904;2023-01-24T07:31:35;3.40;82.60
64817;DHT22;53289;45.602;11.904;2023-01-24T07:34:01;3.50;82.50
64817;DHT22;53289;45.602;11.904;2023-01-24T07:36:27;3.70;82.70
64817;DHT22;53289;45.602;11.904;2023-01-24T07:38:53;3.80;82.80
64817;DHT22;53289;45.602;11.904;2023-01-24T07:41:19;3.90;82.80
64817;DHT22;53289;45.602;11.904;2023-01-24T07:43:45;4.10;82.70
64817;DHT22;53289;45.602;11.904;2023-01-24T07:46:11;4.20;82.50
64817;DHT22;53289;45.602;11.904;2023-01-24T07:48:36;4.40;82.30
64817;DHT22;53289;45.602;11.904;2023-01-24T07:51:03;4.60;81.80
64817;DHT22;53289;45.602;11.904;2023-01-24T07:53:28;4.70;81.40
64817;DHT22;53289;45.602;11.904;2023-01-24T07:55:57;4.90;80.90
64817;DHT22;53289;45.602;11.904;2023-01-24T07:58:23;4.90;80.50
64817;DHT22;53289;45.602;11.904;2023-01-24T08:00:49;5.00;80.40
64817;DHT22;53289;45.602;11.904;2023-01-24T08:03:15;5.00;80.30
64817;DHT22;53289;45.602;11.904;2023-01-24T08:05:41;5.10;80.10
64817;DHT22;53289;45.602;11.904;2023-01-24T08:08:06;5.20;80.00
64817;DHT22;53289;45.602;11.904;2023-01-24T08:10:32;5.30;79.90
64817;DHT22;53289;45.602;11.904;2023-01-24T08:12:58;5.40;79.70
64817;DHT22;53289;45.602;11.904;2023-01-24T08:15:24;5.50;79.60
64817;DHT22;53289;45.602;11.904;2023-01-24T08:17:49;5.60;79.60
64817;DHT22;53289;45.602;11.904;2023-01-24T08:20:15;5.70;79.50
64817;DHT22;53289;45.602;11.904;2023-01-24T08:22:42;5.90;79.50
64817;DHT22;53289;45.602;11.904;2023-01-24T08:25:08;5.90;79.00
64817;DHT22;53289;45.602;11.904;2023-01-24T08:27:34;6.10;78.60
64817;DHT22;53289;45.602;11.904;2023-01-24T08:30:01;6.20;78.40
64817;DHT22;53289;45.602;11.904;2023-01-24T08:32:28;6.40;78.20
64817;DHT22;53289;45.602;11.904;2023-01-24T08:34:54;6.50;78.00
64817;DHT22;53289;45.602;11.904;2023-01-24T08:37:20;6.70;78.10
64817;DHT22;53289;45.602;11.904;2023-01-24T08:39:45;6.80;78.10
64817;DHT22;53289;45.602;11.904;2023-01-24T08:42:12;6.90;78.00
64817;DHT22;53289;45.602;11.904;2023-01-24T08:44:37;7.20;77.90
64817;DHT22;53289;45.602;11.904;2023-01-24T08:47:03;7.40;77.80
64817;DHT22;53289;45.602;11.904;2023-01-24T08:49:29;7.60;77.40
64817;DHT22;53289;45.602;11.904;2023-01-24T08:51:55;7.80;77.60
64817;DHT22;53289;45.602;11.904;2023-01-24T08:54:28;8.10;77.20
64817;DHT22;53289;45.602;11.904;2023-01-24T08:56:55;8.30;76.80
64817;DHT22;53289;45.602;11.904;2023-01-24T08:59:22;8.50;76.60
64817;DHT22;53289;45.602;11.904;2023-01-24T09:01:47;8.80;76.10
64817;DHT22;53289;45.602;11.904;2023-01-24T09:04:13;8.90;74.80
64817;DHT22;53289;45.602;11.904;2023-01-24T09:06:39;9.20;75.20
64817;DHT22;53289;45.602;11.904;2023-01-24T09:09:05;9.40;75.00
64817;DHT22;53289;45.602;11.904;2023-01-24T09:11:31;9.60;74.00
64817;DHT22;53289;45.602;11.904;2023-01-24T09:13:57;9.70;73.80
64817;DHT22;53289;45.602;11.904;2023-01-24T09:16:23;9.80;74.30
64817;DHT22;53289;45.602;11.904;2023-01-24T09:18:50;10.00;73.70
64817;DHT22;53289;45.602;11.904;2023-01-24T09:21:17;10.10;73.10
64817;DHT22;53289;45.602;11.904;2023-01-24T09:23:43;10.10;72.80
64817;DHT22;53289;45.602;11.904;2023-01-24T09:26:09;10.10;73.20
64817;DHT22;53289;45.602;11.904;2023-01-24T09:28:35;10.00;73.30
64817;DHT22;53289;45.602;11.904;2023-01-24T09:31:02;9.90;73.50
64817;DHT22;53289;45.602;11.904;2023-01-24T09:33:28;9.90;73.60
64817;DHT22;53289;45.602;11.904;2023-01-24T09:35:59;9.90;73.10
64817;DHT22;53289;45.602;11.904;2023-01-24T09:38:28;10.00;73.50
64817;DHT22;53289;45.602;11.904;2023-01-24T09:40:56;10.40;73.00
64817;DHT22;53289;45.602;11.904;2023-01-24T09:46:13;10.60;71.10
64817;DHT22;53289;45.602;11.904;2023-01-24T09:48:41;10.80;72.50
64817;DHT22;53289;45.602;11.904;2023-01-24T09:51:19;11.10;71.70
64817;DHT22;53289;45.602;11.904;2023-01-24T09:53:50;11.20;72.20
64817;DHT22;53289;45.602;11.904;2023-01-24T09:56:43;11.50;71.70
64817;DHT22;53289;45.602;11.904;2023-01-24T10:01:58;12.10;70.30
64817;DHT22;53289;45.602;11.904;2023-01-24T10:04:36;12.20;70.00
64817;DHT22;53289;45.602;11.904;2023-01-24T10:20:45;12.30;69.50
64817;DHT22;53289;45.602;11.904;2023-01-24T10:23:23;12.40;68.40
64817;DHT22;53289;45.602;11.904;2023-01-24T10:26:11;12.50;69.10
64817;DHT22;53289;45.602;11.904;2023-01-24T10:28:43;12.60;69.00
64817;DHT22;53289;45.602;11.904;2023-01-24T10:31:20;12.80;68.50
64817;DHT22;53289;45.602;11.904;2023-01-24T10:33:49;12.90;68.00
64817;DHT22;53289;45.602;11.904;2023-01-24T10:38:44;13.30;67.00
64817;DHT22;53289;45.602;11.904;2023-01-24T10:41:24;13.50;66.40
64817;DHT22;53289;45.602;11.904;2023-01-24T10:44:02;13.40;64.90
64817;DHT22;53289;45.602;11.904;2023-01-24T10:49:24;13.10;65.50
64817;DHT22;53289;45.602;11.904;2023-01-24T10:52:15;13.10;66.10
64817;DHT22;53289;45.602;11.904;2023-01-24T10:54:55;13.20;66.50
64817;DHT22;53289;45.602;11.904;2023-01-24T10:57:49;13.20;66.40
64817;DHT22;53289;45.602;11.904;2023-01-24T11:02:51;13.40;66.10
64817;DHT22;53289;45.602;11.904;2023-01-24T11:05:19;13.20;64.80
64817;DHT22;53289;45.602;11.904;2023-01-24T11:07:51;13.20;64.80
64817;DHT22;53289;45.602;11.904;2023-01-24T11:12:57;13.20;63.90
64817;DHT22;53289;45.602;11.904;2023-01-24T11:15:30;13.20;63.20
64817;DHT22;53289;45.602;11.904;2023-01-24T11:20:36;12.90;62.20
64817;DHT22;53289;45.602;11.904;2023-01-24T11:23:18;13.00;64.00
64817;DHT22;53289;45.602;11.904;2023-01-24T11:25:53;13.20;61.80
64817;DHT22;53289;45.602;11.904;2023-01-24T11:28:36;13.40;62.00
64817;DHT22;53289;45.602;11.904;2023-01-24T11:31:22;13.50;59.90
64817;DHT22;53289;45.602;11.904;2023-01-24T11:34:16;13.70;60.00
64817;DHT22;53289;45.602;11.904;2023-01-24T11:41:59;13.50;57.60
64817;DHT22;53289;45.602;11.904;2023-01-24T11:45:28;13.40;57.00
64817;DHT22;53289;45.602;11.904;2023-01-24T11:47:41;13.50;56.90
64817;DHT22;53289;45.602;11.904;2023-01-24T11:53:26;13.30;56.80
64817;DHT22;53289;45.602;11.904;2023-01-24T11:56:21;13.20;58.30
64817;DHT22;53289;45.602;11.904;2023-01-24T12:04:13;13.40;57.70
64817;DHT22;53289;45.602;11.904;2023-01-24T12:07:00;13.40;59.30
64817;DHT22;53289;45.602;11.904;2023-01-24T12:12:18;13.50;57.40
64817;DHT22;53289;45.602;11.904;2023-01-24T12:17:47;13.50;57.20
64817;DHT22;53289;45.602;11.904;2023-01-24T12:23:41;13.50;57.60
64817;DHT22;53289;45.602;11.904;2023-01-24T12:25:52;13.60;57.80
64817;DHT22;53289;45.602;11.904;2023-01-24T12:28:33;13.60;57.40
64817;DHT22;53289;45.602;11.904;2023-01-24T12:31:02;13.60;57.60
64817;DHT22;53289;45.602;11.904;2023-01-24T12:36:13;14.00;58.30
64817;DHT22;53289;45.602;11.904;2023-01-24T12:38:45;14.30;57.50
64817;DHT22;53289;45.602;11.904;2023-01-24T12:41:31;14.50;55.30
64817;DHT22;53289;45.602;11.904;2023-01-24T12:44:00;14.40;55.20
64817;DHT22;53289;45.602;11.904;2023-01-24T12:55:47;14.60;55.40
64817;DHT22;53289;45.602;11.904;2023-01-24T12:58:40;14.50;54.80
64817;DHT22;53289;45.602;11.904;2023-01-24T13:11:45;14.60;52.80
64817;DHT22;53289;45.602;11.904;2023-01-24T13:17:21;14.80;55.20
64817;DHT22;53289;45.602;11.904;2023-01-24T13:22:51;14.70;52.70
64817;DHT22;53289;45.602;11.904;2023-01-24T13:32:19;14.40;53.80
64817;DHT22;53289;45.602;11.904;2023-01-24T13:34:17;14.40;54.50
64817;DHT22;53289;45.602;11.904;2023-01-24T13:36:48;14.30;53.90
64817;DHT22;53289;45.602;11.904;2023-01-24T13:39:36;14.20;54.20
64817;DHT22;53289;45.602;11.904;2023-01-24T13:42:21;14.20;53.70
64817;DHT22;53289;45.602;11.904;2023-01-24T13:44:48;14.20;53.40
64817;DHT22;53289;45.602;11.904;2023-01-24T13:50:10;14.20;53.70
64817;DHT22;53289;45.602;11.904;2023-01-24T13:52:38;14.20;54.10
64817;DHT22;53289;45.602;11.904;2023-01-24T14:00:49;14.30;54.60
64817;DHT22;53289;45.602;11.904;2023-01-24T14:06:13;14.40;54.00
64817;DHT22;53289;45.602;11.904;2023-01-24T14:09:00;14.40;54.10
64817;DHT22;53289;45.602;11.904;2023-01-24T14:11:33;14.40;54.60
64817;DHT22;53289;45.602;11.904;2023-01-24T14:14:02;14.30;54.80
64817;DHT22;53289;45.602;11.904;2023-01-24T14:19:15;14.20;55.30
64817;DHT22;53289;45.602;11.904;2023-01-24T14:24:41;14.10;55.80
64817;DHT22;53289;45.602;11.904;2023-01-24T14:27:20;14.10;55.60
64817;DHT22;53289;45.602;11.904;2023-01-24T14:29:49;14.00;56.00
64817;DHT22;53289;45.602;11.904;2023-01-24T14:32:23;13.90;56.10
64817;DHT22;53289;45.602;11.904;2023-01-24T14:35:15;13.90;56.80
64817;DHT22;53289;45.602;11.904;2023-01-24T14:37:44;13.80;56.90
64817;DHT22;53289;45.602;11.904;2023-01-24T14:42:48;13.50;56.80
64817;DHT22;53289;45.602;11.904;2023-01-24T14:45:19;13.30;57.60
64817;DHT22;53289;45.602;11.904;2023-01-24T14:47:48;13.10;57.60
64817;DHT22;53289;45.602;11.904;2023-01-24T14:52:49;12.70;58.70
64817;DHT22;53289;45.602;11.904;2023-01-24T14:57:54;12.50;59.80
64817;DHT22;53289;45.602;11.904;2023-01-24T15:00:22;12.40;60.00
64817;DHT22;53289;45.602;11.904;2023-01-24T15:02:56;12.40;60.20
64817;DHT22;53289;45.602;11.904;2023-01-24T15:05:35;12.30;60.40
64817;DHT22;53289;45.602;11.904;2023-01-24T15:08:06;12.10;60.50
64817;DHT22;53289;45.602;11.904;2023-01-24T15:10:40;12.00;61.00
64817;DHT22;53289;45.602;11.904;2023-01-24T15:13:09;11.90;61.40
64817;DHT22;53289;45.602;11.904;2023-01-24T15:15:35;11.80;61.20
64817;DHT22;53289;45.602;11.904;2023-01-24T15:18:07;11.60;61.10
64817;DHT22;53289;45.602;11.904;2023-01-24T15:20:48;11.50;61.60
64817;DHT22;53289;45.602;11.904;2023-01-24T15:23:19;11.40;62.10
64817;DHT22;53289;45.602;11.904;2023-01-24T15:25:45;11.40;62.50
64817;DHT22;53289;45.602;11.904;2023-01-24T15:28:26;11.30;62.80
64817;DHT22;53289;45.602;11.904;2023-01-24T15:30:58;11.20;63.00
64817;DHT22;53289;45.602;11.904;2023-01-24T15:33:25;11.10;63.10
64817;DHT22;53289;45.602;11.904;2023-01-24T15:35:52;11.00;63.40
64817;DHT22;53289;45.602;11.904;2023-01-24T15:38:24;10.90;63.70
64817;DHT22;53289;45.602;11.904;2023-01-24T15:43:54;10.60;64.50
64817;DHT22;53289;45.602;11.904;2023-01-24T15:46:34;10.50;64.80
64817;DHT22;53289;45.602;11.904;2023-01-24T15:49:39;10.40;65.30
64817;DHT22;53289;45.602;11.904;2023-01-24T15:54:38;10.10;65.80
64817;DHT22;53289;45.602;11.904;2023-01-24T15:59:44;10.00;66.50
64817;DHT22;53289;45.602;11.904;2023-01-24T16:02:14;10.00;66.60
64817;DHT22;53289;45.602;11.904;2023-01-24T16:04:39;9.90;66.80
64817;DHT22;53289;45.602;11.904;2023-01-24T16:07:06;9.90;67.10
64817;DHT22;53289;45.602;11.904;2023-01-24T16:09:32;9.90;67.00
64817;DHT22;53289;45.602;11.904;2023-01-24T16:11:59;9.70;67.20
64817;DHT22;53289;45.602;11.904;2023-01-24T16:14:26;9.70;67.30
64817;DHT22;53289;45.602;11.904;2023-01-24T16:16:54;9.60;67.60
64817;DHT22;53289;45.602;11.904;2023-01-24T16:19:22;9.60;67.80
64817;DHT22;53289;45.602;11.904;2023-01-24T16:21:49;9.50;67.80
64817;DHT22;53289;45.602;11.904;2023-01-24T16:24:16;9.40;67.90
64817;DHT22;53289;45.602;11.904;2023-01-24T16:26:50;9.40;67.90
64817;DHT22;53289;45.602;11.904;2023-01-24T16:29:20;9.30;68.00
64817;DHT22;53289;45.602;11.904;2023-01-24T16:31:46;9.30;68.00
64817;DHT22;53289;45.602;11.904;2023-01-24T16:34:12;9.20;68.00
64817;DHT22;53289;45.602;11.904;2023-01-24T16:36:39;9.10;68.00
64817;DHT22;53289;45.602;11.904;2023-01-24T16:39:05;9.10;68.10
64817;DHT22;53289;45.602;11.904;2023-01-24T16:41:32;9.00;68.20
64817;DHT22;53289;45.602;11.904;2023-01-24T16:43:58;8.90;68.30
64817;DHT22;53289;45.602;11.904;2023-01-24T16:46:24;8.90;68.50
64817;DHT22;53289;45.602;11.904;2023-01-24T16:48:50;8.90;68.90
64817;DHT22;53289;45.602;11.904;2023-01-24T16:51:17;8.90;68.70
64817;DHT22;53289;45.602;11.904;2023-01-24T16:53:43;8.90;68.70
64817;DHT22;53289;45.602;11.904;2023-01-24T16:56:09;8.90;68.80
64817;DHT22;53289;45.602;11.904;2023-01-24T16:58:35;8.90;68.80
64817;DHT22;53289;45.602;11.904;2023-01-24T17:01:07;8.90;69.30
64817;DHT22;53289;45.602;11.904;2023-01-24T17:03:33;9.00;69.00
64817;DHT22;53289;45.602;11.904;2023-01-24T17:05:59;9.00;69.10
64817;DHT22;53289;45.602;11.904;2023-01-24T17:08:25;9.00;69.20
64817;DHT22;53289;45.602;11.904;2023-01-24T17:10:51;9.00;69.40
64817;DHT22;53289;45.602;11.904;2023-01-24T17:13:17;9.00;69.60
64817;DHT22;53289;45.602;11.904;2023-01-24T17:15:43;9.00;70.10
64817;DHT22;53289;45.602;11.904;2023-01-24T17:18:09;9.10;70.30
64817;DHT22;53289;45.602;11.904;2023-01-24T17:20:36;9.00;70.60
64817;DHT22;53289;45.602;11.904;2023-01-24T17:23:08;9.10;71.00
64817;DHT22;53289;45.602;11.904;2023-01-24T17:25:34;9.00;71.00
64817;DHT22;53289;45.602;11.904;2023-01-24T17:28:00;9.00;71.50
64817;DHT22;53289;45.602;11.904;2023-01-24T17:30:26;8.90;72.20
64817;DHT22;53289;45.602;11.904;2023-01-24T17:32:52;8.90;72.40
64817;DHT22;53289;45.602;11.904;2023-01-24T17:35:18;8.90;72.30
64817;DHT22;53289;45.602;11.904;2023-01-24T17:37:44;8.90;72.30
64817;DHT22;53289;45.602;11.904;2023-01-24T17:40:10;8.80;72.60
64817;DHT22;53289;45.602;11.904;2023-01-24T17:42:37;8.80;72.60
64817;DHT22;53289;45.602;11.904;2023-01-24T17:45:03;8.80;72.70
64817;DHT22;53289;45.602;11.904;2023-01-24T17:47:29;8.60;73.50
64817;DHT22;53289;45.602;11.904;2023-01-24T17:49:55;8.60;73.10
64817;DHT22;53289;45.602;11.904;2023-01-24T17:52:21;8.60;73.40
64817;DHT22;53289;45.602;11.904;2023-01-24T17:54:47;8.60;73.40
64817;DHT22;53289;45.602;11.904;2023-01-24T17:57:13;8.50;73.30
64817;DHT22;53289;45.602;11.904;2023-01-24T17:59:38;8.50;73.70
64817;DHT22;53289;45.602;11.904;2023-01-24T18:02:05;8.40;74.10